createdAt,value
2023-05-23T00:01:45.588Z,49.88
2023-05-23T00:04:33.398Z,50.28
2023-05-23T00:07:21.021Z,47.25
2023-05-23T00:10:08.967Z,47.75
2023-05-23T00:12:58.217Z,44.05
2023-05-23T00:15:45.868Z,42.38
2023-05-23T00:18:33.431Z,40.20
2023-05-23T00:21:21.050Z,40.83
2023-05-23T00:24:10.161Z,37.88
2023-05-23T00:26:59.102Z,38.88
2023-05-23T00:29:46.625Z,37.47
2023-05-23T00:32:35.703Z,39.88
2023-05-23T00:35:26.303Z,37.70
2023-05-23T00:38:14.528Z,39.63
2023-05-23T00:41:02.860Z,40.00
2023-05-23T00:43:50.552Z,40.63
2023-05-23T00:46:38.320Z,47.03
2023-05-23T00:49:28.285Z,43.70
2023-05-23T00:52:16.785Z,45.80
2023-05-23T00:55:05.508Z,45.78
2023-05-23T00:57:57.310Z,48.10
2023-05-23T01:00:45.335Z,50.05
2023-05-23T01:03:32.982Z,47.55
2023-05-23T01:06:21.087Z,46.15
2023-05-23T01:09:09.823Z,44.75
2023-05-23T01:12:02.893Z,42.97
2023-05-23T01:15:10.983Z,46.47
2023-05-23T01:18:14.511Z,43.72
2023-05-23T01:21:12.998Z,40.63
2023-05-23T01:24:06.768Z,39.47
2023-05-23T01:27:08.149Z,40.95
2023-05-23T01:29:58.745Z,38.40
2023-05-23T01:32:49.358Z,38.53
2023-05-23T01:35:37.696Z,37.10
2023-05-23T01:38:25.290Z,39.00
2023-05-23T01:41:12.893Z,39.65
2023-05-23T01:44:00.899Z,37.88
2023-05-23T01:46:49.010Z,37.60
2023-05-23T01:49:38.056Z,35.55
2023-05-23T01:52:26.486Z,36.05
2023-05-23T01:55:22.567Z,35.40
2023-05-23T01:58:10.258Z,35.40
2023-05-23T02:00:58.433Z,36.75
2023-05-23T02:03:46.540Z,37.50
2023-05-23T02:06:34.418Z,37.63
2023-05-23T02:09:22.033Z,36.80
2023-05-23T02:12:10.196Z,33.17
2023-05-23T02:14:57.809Z,33.33
2023-05-23T02:17:48.021Z,34.53
2023-05-23T02:20:35.836Z,34.10
2023-05-23T02:23:23.494Z,32.78
2023-05-23T02:26:11.107Z,31.60
2023-05-23T02:28:58.743Z,32.45
2023-05-23T02:31:46.493Z,30.13
2023-05-23T02:34:34.232Z,30.40
2023-05-23T02:37:21.811Z,23.92
2023-05-23T02:40:09.861Z,22.38
2023-05-23T02:42:57.494Z,23.95
2023-05-23T02:45:45.182Z,22.85
2023-05-23T02:48:32.762Z,21.17
2023-05-23T02:51:20.717Z,22.55
2023-05-23T02:54:08.232Z,21.77
2023-05-23T02:56:55.989Z,19.50
2023-05-23T02:59:43.523Z,20.65
2023-05-23T03:02:31.388Z,22.42
2023-05-23T03:05:19.312Z,20.10
2023-05-23T03:08:07.021Z,22.15
2023-05-23T03:10:55.055Z,21.23
2023-05-23T03:13:42.904Z,22.40
2023-05-23T03:16:30.561Z,23.88
2023-05-23T03:19:18.326Z,21.17
2023-05-23T03:22:06.237Z,19.73
2023-05-23T03:24:53.958Z,21.27
2023-05-23T03:27:41.862Z,20.65
2023-05-23T03:30:29.592Z,20.77
2023-05-23T03:33:17.374Z,19.30
2023-05-23T03:36:05.214Z,19.92
2023-05-23T03:38:53.589Z,17.63
2023-05-23T03:41:41.285Z,17.85
2023-05-23T03:44:30.228Z,14.25
2023-05-23T03:47:18.005Z,16.92
2023-05-23T03:50:06.622Z,17.13
2023-05-23T03:52:54.760Z,16.33
2023-05-23T03:55:43.314Z,15.05
2023-05-23T03:58:31.202Z,18.98
2023-05-23T04:01:18.905Z,17.65
2023-05-23T04:04:06.753Z,21.45
2023-05-23T04:06:54.581Z,19.83
2023-05-23T04:09:42.409Z,22.58
2023-05-23T04:12:32.835Z,23.35
2023-05-23T04:15:21.766Z,22.20
2023-05-23T04:18:10.240Z,23.42
2023-05-23T04:20:58.115Z,22.05
2023-05-23T04:23:46.259Z,26.27
2023-05-23T04:26:33.715Z,27.17
2023-05-23T04:29:22.175Z,23.58
2023-05-23T04:32:09.767Z,26.48
2023-05-23T04:35:00.380Z,26.73
2023-05-23T04:37:49.505Z,27.77
2023-05-23T04:40:37.253Z,26.52
2023-05-23T04:43:26.699Z,30.30
2023-05-23T04:46:14.503Z,30.73
2023-05-23T04:49:02.655Z,30.55
2023-05-23T04:51:50.265Z,33.63
2023-05-23T04:54:40.654Z,29.63
2023-05-23T04:57:29.159Z,29.75
2023-05-23T05:00:17.343Z,31.45
2023-05-23T05:03:10.178Z,32.00
2023-05-23T05:06:00.403Z,31.65
2023-05-23T05:08:48.348Z,29.45
2023-05-23T05:11:38.834Z,30.80
2023-05-23T05:14:27.681Z,25.92
2023-05-23T05:17:15.415Z,25.02
2023-05-23T05:20:08.508Z,25.23
2023-05-23T05:22:59.261Z,24.67
2023-05-23T05:25:47.057Z,24.20
2023-05-23T05:28:34.549Z,26.10
2023-05-23T05:31:22.121Z,26.55
2023-05-23T05:34:09.650Z,23.00
2023-05-23T05:37:00.321Z,19.98
2023-05-23T05:39:47.791Z,19.42
2023-05-23T05:42:35.677Z,18.00
2023-05-23T05:45:23.403Z,18.42
2023-05-23T05:48:13.407Z,18.02
2023-05-23T05:51:01.373Z,17.90
2023-05-23T05:53:49.745Z,15.65
2023-05-23T05:56:37.339Z,15.07
2023-05-23T05:59:25.131Z,19.35
2023-05-23T06:02:12.914Z,17.30
2023-05-23T06:05:00.596Z,16.23
2023-05-23T06:07:49.822Z,16.48
2023-05-23T06:10:39.939Z,17.38
2023-05-23T06:13:27.861Z,15.52
2023-05-23T06:16:15.599Z,14.80
2023-05-23T06:19:05.584Z,14.90
2023-05-23T06:21:53.417Z,15.85
2023-05-23T06:24:40.995Z,15.30
2023-05-23T06:27:28.688Z,12.90
2023-05-23T06:30:16.486Z,14.75
2023-05-23T06:33:04.210Z,13.05
2023-05-23T06:35:52.081Z,12.82
2023-05-23T06:38:39.613Z,10.57
2023-05-23T06:41:27.664Z,11.73
2023-05-23T06:44:15.534Z,10.95
2023-05-23T06:47:06.301Z,9.40
2023-05-23T06:49:53.908Z,10.45
2023-05-23T06:52:42.985Z,9.82
2023-05-23T06:55:34.187Z,8.15
2023-05-23T06:58:25.269Z,7.63
2023-05-23T07:01:16.868Z,7.90
2023-05-23T07:04:07.137Z,6.35
2023-05-23T07:06:56.364Z,6.55
2023-05-23T07:09:44.595Z,7.43
2023-05-23T07:12:34.702Z,5.93
2023-05-23T07:15:22.465Z,5.75
2023-05-23T07:18:10.059Z,5.53
2023-05-23T07:20:57.731Z,5.93
2023-05-23T07:23:45.374Z,6.63
2023-05-23T07:26:33.430Z,6.70
2023-05-23T07:29:21.046Z,6.68
2023-05-23T07:32:08.653Z,6.30
2023-05-23T07:34:58.380Z,6.22
2023-05-23T07:37:47.073Z,6.38
2023-05-23T07:40:36.044Z,6.80
2023-05-23T07:43:23.893Z,8.13
2023-05-23T07:46:11.767Z,8.15
2023-05-23T07:48:59.391Z,7.13
2023-05-23T07:51:47.329Z,8.40
2023-05-23T07:54:34.865Z,7.25
2023-05-23T07:57:22.382Z,6.68
2023-05-23T08:00:13.234Z,7.45
2023-05-23T08:03:01.063Z,7.20
2023-05-23T08:05:49.143Z,7.18
2023-05-23T08:08:38.067Z,7.22
2023-05-23T08:11:27.692Z,6.10
2023-05-23T08:14:15.484Z,6.20
2023-05-23T08:17:03.332Z,6.30
2023-05-23T08:19:51.107Z,6.10
2023-05-23T08:22:38.949Z,5.30
2023-05-23T08:25:31.014Z,7.28
2023-05-23T08:28:18.735Z,5.07
2023-05-23T08:31:07.443Z,9.82
2023-05-23T08:33:55.110Z,5.07
2023-05-23T08:36:43.245Z,8.20
2023-05-23T08:39:34.658Z,7.55
2023-05-23T08:42:22.445Z,3.90
2023-05-23T08:45:10.779Z,3.80
2023-05-23T08:48:01.208Z,3.88
2023-05-23T08:50:51.192Z,4.80
2023-05-23T08:53:41.222Z,3.83
2023-05-23T08:56:28.964Z,4.10
2023-05-23T08:59:17.098Z,5.32
2023-05-23T09:02:11.286Z,4.43
2023-05-23T09:07:49.354Z,7.45
2023-05-23T09:10:38.043Z,6.53
2023-05-23T09:13:26.005Z,7.45
2023-05-23T09:16:18.075Z,5.45
2023-05-23T09:19:15.476Z,6.75
2023-05-23T09:22:03.923Z,5.88
2023-05-23T09:24:53.166Z,5.50
2023-05-23T09:27:41.452Z,4.93
2023-05-23T09:30:34.561Z,4.72
2023-05-23T09:33:22.541Z,5.93
2023-05-23T09:36:13.704Z,4.22
2023-05-23T09:39:06.004Z,4.95
2023-05-23T09:41:55.241Z,4.45
2023-05-23T09:44:43.807Z,5.45
2023-05-23T09:47:31.934Z,3.60
2023-05-23T09:50:22.493Z,4.40
2023-05-23T09:53:10.132Z,4.22
2023-05-23T09:55:59.911Z,4.45
2023-05-23T09:58:48.943Z,5.15
2023-05-23T10:01:36.945Z,5.00
2023-05-23T10:04:26.347Z,4.70
2023-05-23T10:07:17.416Z,4.93
2023-05-23T10:10:08.414Z,8.50
2023-05-23T10:12:58.435Z,6.20
2023-05-23T10:15:47.718Z,5.25
2023-05-23T10:18:43.478Z,4.78
2023-05-23T10:21:40.879Z,4.15
2023-05-23T10:24:29.158Z,4.25
2023-05-23T10:27:16.897Z,4.32
2023-05-23T10:30:05.958Z,4.55
2023-05-23T10:32:58.141Z,5.18
2023-05-23T10:35:57.616Z,8.10
2023-05-23T10:39:17.141Z,5.53
2023-05-23T10:42:32.085Z,5.68
2023-05-23T10:45:21.616Z,5.80
2023-05-23T10:48:34.049Z,6.90
2023-05-23T10:51:22.727Z,5.78
2023-05-23T10:54:13.432Z,5.55
2023-05-23T10:57:05.315Z,5.93
2023-05-23T10:59:53.157Z,8.20
2023-05-23T11:02:54.284Z,6.10
2023-05-23T11:05:52.643Z,5.70
2023-05-23T11:08:48.209Z,4.85
2023-05-23T11:11:55.079Z,4.78
2023-05-23T11:14:48.795Z,6.85
2023-05-23T11:17:36.497Z,6.07
2023-05-23T11:20:28.508Z,4.15
2023-05-23T11:23:16.416Z,4.38
2023-05-23T11:26:04.147Z,4.00
2023-05-23T11:28:59.237Z,3.50
2023-05-23T11:31:46.969Z,6.00
2023-05-23T11:34:34.628Z,3.50
2023-05-23T11:37:26.638Z,3.60
2023-05-23T11:40:34.118Z,2.55
2023-05-23T11:43:24.282Z,4.95
2023-05-23T11:46:13.451Z,2.20
2023-05-23T11:49:13.152Z,2.97
2023-05-23T11:52:07.354Z,2.30
2023-05-23T11:55:03.489Z,2.53
2023-05-23T11:58:00.800Z,2.97
2023-05-23T12:00:53.018Z,4.22
2023-05-23T12:03:52.446Z,2.65
2023-05-23T12:06:43.427Z,1.73
2023-05-23T12:09:31.583Z,2.15
2023-05-23T12:12:22.708Z,2.47
2023-05-23T12:15:11.767Z,4.15
2023-05-23T12:17:59.736Z,2.00
2023-05-23T12:20:50.511Z,5.82
2023-05-23T12:23:39.572Z,3.55
2023-05-23T12:26:27.248Z,2.63
2023-05-23T12:29:14.872Z,2.08
2023-05-23T12:32:04.636Z,2.72
2023-05-23T12:34:52.784Z,4.47
2023-05-23T12:37:47.195Z,2.50
2023-05-23T12:40:36.236Z,3.45
2023-05-23T12:43:24.292Z,2.40
2023-05-23T12:46:11.929Z,2.70
2023-05-23T12:48:59.560Z,2.40
2023-05-23T12:51:47.471Z,2.28
2023-05-23T12:54:35.194Z,2.95
2023-05-23T12:57:23.053Z,2.95
2023-05-23T13:00:13.988Z,2.85
2023-05-23T13:03:01.965Z,2.90
2023-05-23T13:05:49.582Z,3.05
2023-05-23T13:08:38.100Z,3.50
2023-05-23T13:11:25.854Z,4.15
2023-05-23T13:14:14.097Z,4.50
2023-05-23T13:17:01.806Z,4.88
2023-05-23T13:19:49.462Z,7.93
2023-05-23T13:22:37.075Z,5.22
2023-05-23T13:25:26.399Z,4.75
2023-05-23T13:28:14.106Z,4.95
2023-05-23T13:31:03.641Z,4.90
2023-05-23T13:33:51.733Z,4.93
2023-05-23T13:36:39.422Z,7.97
2023-05-23T13:39:27.397Z,4.32
2023-05-23T13:42:15.130Z,5.47
2023-05-23T13:45:02.963Z,7.32
2023-05-23T13:47:50.808Z,7.20
2023-05-23T13:50:38.612Z,5.13
2023-05-23T13:53:29.515Z,4.93
2023-05-23T13:56:17.572Z,6.68
2023-05-23T13:59:05.643Z,4.97
2023-05-23T14:01:53.453Z,7.07
2023-05-23T14:04:44.336Z,6.85
2023-05-23T14:07:32.155Z,5.88
2023-05-23T14:10:19.994Z,7.85
2023-05-23T14:13:08.362Z,7.57
2023-05-23T14:15:56.327Z,9.07
2023-05-23T14:18:45.353Z,7.68
2023-05-23T14:21:33.989Z,7.93
2023-05-23T14:24:23.044Z,7.15
2023-05-23T14:27:11.396Z,9.10
2023-05-23T14:29:59.549Z,7.47
2023-05-23T14:32:47.313Z,8.80
2023-05-23T14:35:35.108Z,9.55
2023-05-23T14:38:22.768Z,8.73
2023-05-23T14:41:10.603Z,8.68
2023-05-23T14:43:59.355Z,8.25
2023-05-23T14:46:50.374Z,7.30
2023-05-23T14:49:40.513Z,8.27
2023-05-23T14:52:28.463Z,6.75
2023-05-23T14:55:18.459Z,8.10
2023-05-23T14:58:06.382Z,10.52
2023-05-23T15:00:54.225Z,14.77
2023-05-23T15:03:42.116Z,7.53
2023-05-23T15:06:30.029Z,12.27
2023-05-23T15:09:18.259Z,6.45
2023-05-23T15:12:08.054Z,9.60
2023-05-23T15:15:03.623Z,7.63
2023-05-23T15:17:52.260Z,6.30
2023-05-23T15:20:40.385Z,10.30
2023-05-23T15:23:28.333Z,7.65
2023-05-23T15:26:16.201Z,8.52
2023-05-23T15:29:04.077Z,9.20
2023-05-23T15:31:52.673Z,8.18
2023-05-23T15:34:40.429Z,5.22
2023-05-23T15:37:28.180Z,8.18
2023-05-23T15:40:16.428Z,5.47
2023-05-23T15:43:04.238Z,7.13
2023-05-23T15:45:52.782Z,6.85
2023-05-23T15:48:43.348Z,6.70
2023-05-23T15:51:32.776Z,7.55
2023-05-23T15:54:20.521Z,5.20
2023-05-23T15:57:08.137Z,8.63
2023-05-23T15:59:55.617Z,6.05
2023-05-23T16:02:43.224Z,7.10
2023-05-23T16:05:30.812Z,8.98
2023-05-23T16:08:18.489Z,6.45
2023-05-23T16:11:07.652Z,6.40
2023-05-23T16:13:55.760Z,4.45
2023-05-23T16:16:43.489Z,5.18
2023-05-23T16:19:33.894Z,12.32
2023-05-23T16:22:21.959Z,6.32
2023-05-23T16:25:11.214Z,4.35
2023-05-23T16:27:59.171Z,3.83
2023-05-23T16:30:47.437Z,8.07
2023-05-23T16:33:35.209Z,4.25
2023-05-23T16:36:23.393Z,5.15
2023-05-23T16:39:22.081Z,6.18
2023-05-23T16:42:09.667Z,5.35
2023-05-23T16:44:57.534Z,5.70
2023-05-23T16:47:45.334Z,5.20
2023-05-23T16:50:33.238Z,4.75
2023-05-23T16:53:21.750Z,6.40
2023-05-23T16:56:10.760Z,4.75
2023-05-23T16:58:58.691Z,4.47
2023-05-23T17:01:46.572Z,8.32
2023-05-23T17:04:34.802Z,5.15
2023-05-23T17:07:22.480Z,9.68
2023-05-23T17:10:10.775Z,9.18
2023-05-23T17:12:58.427Z,6.60
2023-05-23T17:15:46.332Z,7.00
2023-05-23T17:18:36.660Z,6.38
2023-05-23T17:21:24.708Z,5.15
2023-05-23T17:24:12.934Z,8.02
2023-05-23T17:27:00.591Z,8.05
2023-05-23T17:29:48.246Z,8.82
2023-05-23T17:32:35.915Z,10.82
2023-05-23T17:35:23.741Z,11.52
2023-05-23T17:38:11.403Z,7.70
2023-05-23T17:40:59.087Z,10.27
2023-05-23T17:43:46.788Z,7.03
2023-05-23T17:46:34.528Z,7.22
2023-05-23T17:49:22.873Z,7.03
2023-05-23T17:52:10.528Z,7.93
2023-05-23T17:54:58.255Z,8.68
2023-05-23T17:57:45.961Z,7.45
2023-05-23T18:00:33.755Z,8.32
2023-05-23T18:03:21.686Z,9.18
2023-05-23T18:06:10.613Z,6.45
2023-05-23T18:08:58.160Z,9.48
2023-05-23T18:11:46.502Z,7.10
2023-05-23T18:14:38.293Z,12.43
2023-05-23T18:17:26.985Z,7.55
2023-05-23T18:20:14.787Z,9.63
2023-05-23T18:23:02.402Z,7.25
2023-05-23T18:25:49.924Z,8.50
2023-05-23T18:28:37.489Z,9.82
2023-05-23T18:31:25.098Z,9.93
2023-05-23T18:34:12.683Z,9.95
2023-05-23T18:37:00.494Z,8.65
2023-05-23T18:39:48.301Z,11.45
2023-05-23T18:42:35.997Z,9.95
2023-05-23T18:45:23.901Z,10.70
2023-05-23T18:48:11.846Z,11.90
2023-05-23T18:50:59.535Z,9.50
2023-05-23T18:53:49.586Z,9.60
2023-05-23T18:56:37.165Z,9.15
2023-05-23T18:59:24.792Z,7.85
2023-05-23T19:02:12.677Z,11.90
2023-05-23T19:05:00.370Z,11.63
2023-05-23T19:07:52.246Z,7.75
2023-05-23T19:10:40.173Z,10.32
2023-05-23T19:13:28.647Z,11.07
2023-05-23T19:16:17.580Z,12.02
2023-05-23T19:19:05.990Z,13.25
2023-05-23T19:21:53.745Z,12.85
2023-05-23T19:24:41.652Z,9.60
2023-05-23T19:27:29.317Z,9.68
2023-05-23T19:30:17.193Z,11.73
2023-05-23T19:33:05.277Z,10.77
2023-05-23T19:35:53.122Z,17.48
2023-05-23T19:38:41.479Z,15.27
2023-05-23T19:41:35.291Z,14.00
2023-05-23T19:44:25.289Z,22.20
2023-05-23T19:47:13.094Z,13.73
2023-05-23T19:50:02.365Z,13.15
2023-05-23T19:52:50.241Z,17.38
2023-05-23T19:55:38.189Z,14.50
2023-05-23T19:58:26.151Z,16.35
2023-05-23T20:01:14.419Z,11.60
2023-05-23T20:04:02.576Z,13.00
2023-05-23T20:06:50.561Z,10.65
2023-05-23T20:09:38.876Z,10.43
2023-05-23T20:12:26.800Z,11.27
2023-05-23T20:15:15.898Z,17.00
2023-05-23T20:18:06.069Z,14.10
2023-05-23T20:20:54.109Z,13.23
2023-05-23T20:23:45.219Z,15.43
2023-05-23T20:26:35.452Z,12.07
2023-05-23T20:29:24.070Z,12.32
2023-05-23T20:32:11.806Z,17.20
2023-05-23T20:35:00.209Z,13.77
2023-05-23T20:37:48.356Z,14.30
2023-05-23T20:40:36.426Z,17.60
2023-05-23T20:43:24.515Z,15.60
2023-05-23T20:46:16.238Z,13.95
2023-05-23T20:49:04.545Z,17.58
2023-05-23T20:51:53.700Z,12.45
2023-05-23T20:54:42.899Z,9.88
2023-05-23T20:57:30.681Z,19.55
2023-05-23T21:00:19.120Z,12.48
2023-05-23T21:03:07.340Z,10.85
2023-05-23T21:05:56.157Z,17.27
2023-05-23T21:08:47.042Z,14.77
2023-05-23T21:11:35.079Z,11.95
2023-05-23T21:14:24.068Z,14.00
2023-05-23T21:17:11.978Z,14.82
2023-05-23T21:19:59.968Z,12.73
2023-05-23T21:22:51.556Z,17.67
2023-05-23T21:25:39.688Z,18.23
2023-05-23T21:28:27.643Z,14.23
2023-05-23T21:31:17.238Z,12.23
2023-05-23T21:34:21.784Z,13.05
2023-05-23T21:37:11.596Z,14.02
2023-05-23T21:39:59.453Z,13.77
2023-05-23T21:42:47.566Z,13.32
2023-05-23T21:45:35.840Z,13.13
2023-05-23T21:48:23.877Z,10.77
2023-05-23T21:51:12.570Z,15.85
2023-05-23T21:54:00.479Z,17.33
2023-05-23T21:56:48.099Z,12.68
2023-05-23T21:59:35.655Z,14.98
2023-05-23T22:02:23.493Z,17.08
2023-05-23T22:05:11.566Z,13.77
2023-05-23T22:07:59.311Z,15.75
2023-05-23T22:10:51.237Z,13.05
2023-05-23T22:13:40.796Z,17.52
2023-05-23T22:16:34.460Z,10.77
2023-05-23T22:19:26.411Z,17.95
2023-05-23T22:22:14.412Z,13.13
2023-05-23T22:25:02.217Z,12.88
2023-05-23T22:27:50.158Z,15.18
2023-05-23T22:30:37.907Z,12.40
2023-05-23T22:33:25.542Z,19.00
2023-05-23T22:36:13.163Z,14.88
2023-05-23T22:39:03.201Z,10.60
2023-05-23T22:41:51.443Z,16.42
2023-05-23T22:44:39.089Z,18.73
2023-05-23T22:47:29.297Z,11.20
2023-05-23T22:50:18.596Z,15.07
2023-05-23T22:53:07.969Z,16.15
2023-05-23T22:55:57.075Z,12.25
2023-05-23T22:58:44.763Z,20.20
2023-05-23T23:01:33.476Z,13.90
2023-05-23T23:04:23.691Z,18.65
2023-05-23T23:07:11.549Z,13.55
2023-05-23T23:09:59.128Z,21.85
2023-05-23T23:12:46.743Z,14.93
2023-05-23T23:15:34.258Z,21.58
2023-05-23T23:18:22.163Z,15.02
2023-05-23T23:21:09.758Z,15.30
2023-05-23T23:23:59.841Z,20.65
2023-05-23T23:26:47.514Z,19.23
2023-05-23T23:29:35.028Z,17.88
2023-05-23T23:32:22.573Z,12.90
2023-05-23T23:35:10.129Z,16.48
2023-05-23T23:37:57.594Z,15.15
2023-05-23T23:40:45.763Z,11.60
2023-05-23T23:43:33.379Z,16.92
2023-05-23T23:46:20.975Z,17.67
2023-05-23T23:49:08.585Z,14.15
2023-05-23T23:51:56.217Z,15.02
2023-05-23T23:54:44.112Z,14.68
2023-05-23T23:57:31.747Z,11.80
